Time;durP1;ratioP1;P1;durP2;ratioP2;P2;SDS_P1;SDS_P2;PMS_P1;PMS_P2;Temp;Humidity;BMP_temperature;BMP_pressure;BME280_temperature;BME280_humidity;BME280_pressure;Samples;Min_cycle;Max_cycle;Signal;HPM_P1;HPM_P2
2021/08/02 00:01:07;;;;;;;20.27;15.63;;;;;;;22.00;79.82;98809.55;1721187;82;21157;-65
2021/08/02 00:04:03;;;;;;;20.37;15.30;;;;;;;21.97;80.03;98792.87;1707962;82;21058;-65
2021/08/02 00:06:48;;;;;;;17.95;14.90;;;;;;;21.98;80.21;98793.89;1716055;81;21059;-64
2021/08/02 00:09:17;;;;;;;21.80;14.78;;;;;;;22.00;80.27;98802.63;1698921;83;21011;-64
2021/08/02 00:12:00;;;;;;;24.52;16.17;;;;;;;22.04;80.27;98797.95;1713507;82;21550;-64
2021/08/02 00:14:27;;;;;;;20.90;15.78;;;;;;;22.07;80.23;98793.05;1714190;83;21027;-65
2021/08/02 00:16:56;;;;;;;19.15;14.38;;;;;;;22.11;80.13;98794.50;1720071;82;21150;-65
2021/08/02 00:19:24;;;;;;;19.05;14.63;;;;;;;22.14;79.97;98791.78;1709835;82;21012;-65
2021/08/02 00:21:51;;;;;;;18.32;15.00;;;;;;;22.14;79.80;98789.01;1708348;82;21074;-65
2021/08/02 00:24:20;;;;;;;20.90;15.88;;;;;;;22.14;79.64;98786.23;1708731;83;21059;-65
2021/08/02 00:26:47;;;;;;;17.87;15.15;;;;;;;22.11;79.53;98783.41;1710188;83;21648;-65
2021/08/02 00:29:15;;;;;;;20.37;15.35;;;;;;;22.09;79.50;98778.25;1702352;83;21020;-65
2021/08/02 00:31:42;;;;;;;20.92;15.60;;;;;;;22.06;79.53;98766.53;1712346;83;21082;-65
2021/08/02 00:34:09;;;;;;;22.02;15.25;;;;;;;22.05;79.61;98764.11;1696239;83;20988;-65
2021/08/02 00:36:46;;;;;;;20.10;16.20;;;;;;;22.04;79.61;98761.92;1717460;82;21091;-65
2021/08/02 00:39:21;;;;;;;21.93;15.45;;;;;;;22.03;79.70;98760.92;1711955;83;21574;-65
2021/08/02 00:42:31;;;;;;;19.00;14.98;;;;;;;22.02;79.73;98755.16;1700046;83;21410;-65
2021/08/02 00:45:21;;;;;;;20.02;15.63;;;;;;;22.01;79.82;98748.81;1723183;83;21050;-64
2021/08/02 00:48:09;;;;;;;21.80;14.98;;;;;;;22.01;79.86;98739.70;1706038;81;21047;-64
2021/08/02 00:50:39;;;;;;;20.08;15.88;;;;;;;22.00;79.81;98723.66;1698230;83;20969;-64
2021/08/02 00:53:09;;;;;;;20.32;15.60;;;;;;;22.00;79.80;98724.27;1707029;83;21023;-65
2021/08/02 00:55:42;;;;;;;21.73;15.40;;;;;;;22.00;79.83;98722.27;1697462;83;21553;-64
2021/08/02 00:58:12;;;;;;;23.35;15.78;;;;;;;22.01;79.89;98711.41;1700946;83;20964;-65
2021/08/02 01:00:40;;;;;;;21.27;15.98;;;;;;;22.04;79.89;98711.23;1714492;83;20968;-65
2021/08/02 01:03:09;;;;;;;17.62;15.18;;;;;;;22.05;79.93;98707.30;1716727;83;21051;-65
2021/08/02 01:05:40;;;;;;;20.68;16.45;;;;;;;22.06;80.06;98700.59;1706217;83;21494;-65
2021/08/02 01:08:17;;;;;;;21.68;16.65;;;;;;;22.08;80.07;98683.00;1696802;83;21006;-65
2021/08/02 01:10:46;;;;;;;20.17;16.02;;;;;;;22.11;79.96;98673.35;1712251;83;20952;-65
2021/08/02 01:13:16;;;;;;;22.93;15.40;;;;;;;22.12;79.80;98682.47;1710284;83;20992;-65
2021/08/02 01:15:52;;;;;;;21.42;15.28;;;;;;;22.11;79.77;98698.30;1688107;83;21023;-65
2021/08/02 01:18:20;;;;;;;19.53;14.83;;;;;;;22.11;79.63;98699.68;1714955;83;21003;-65
2021/08/02 01:20:50;;;;;;;18.60;15.40;;;;;;;22.10;79.62;98687.60;1705257;82;20991;-65
2021/08/02 01:23:18;;;;;;;18.55;15.13;;;;;;;22.10;79.66;98676.52;1704110;83;20944;-65
2021/08/02 01:25:57;;;;;;;19.27;15.08;;;;;;;22.08;79.62;98663.02;1699270;83;21479;-65
2021/08/02 01:28:34;;;;;;;20.85;14.87;;;;;;;22.06;79.63;98656.26;1715637;83;21019;-65
2021/08/02 01:31:02;;;;;;;20.52;14.98;;;;;;;22.03;79.64;98652.27;1711294;81;21130;-65
2021/08/02 01:33:34;;;;;;;18.10;15.32;;;;;;;21.96;79.61;98648.02;1706320;82;20992;-65
2021/08/02 01:36:06;;;;;;;21.45;14.98;;;;;;;21.89;79.78;98643.72;1714018;81;21086;-65
2021/08/02 01:38:34;;;;;;;19.75;15.63;;;;;;;21.84;79.86;98637.90;1713544;83;20968;-65
2021/08/02 01:41:03;;;;;;;19.52;15.18;;;;;;;21.79;79.99;98633.24;1718131;82;21091;-65
2021/08/02 01:43:32;;;;;;;23.27;15.90;;;;;;;21.75;80.10;98637.34;1715850;83;20996;-65
2021/08/02 01:46:30;;;;;;;21.90;15.65;;;;;;;21.73;80.27;98639.70;1705124;83;21075;-65
2021/08/02 01:49:05;;;;;;;18.82;15.83;;;;;;;21.71;80.43;98638.48;1699238;83;21530;-65
2021/08/02 01:51:48;;;;;;;20.82;15.98;;;;;;;21.68;80.62;98632.30;1731033;81;21078;-65
2021/08/02 01:54:53;;;;;;;19.50;16.52;;;;;;;21.65;80.84;98625.52;1715115;83;21453;-64
2021/08/02 01:57:56;;;;;;;20.97;16.05;;;;;;;21.62;80.99;98624.88;1706530;83;21075;-64
2021/08/02 02:00:24;;;;;;;21.05;15.13;;;;;;;21.61;81.11;98628.81;1724111;81;21616;-65
2021/08/02 02:03:03;;;;;;;19.20;16.05;;;;;;;21.60;81.16;98640.27;1713299;83;21039;-64
2021/08/02 02:05:37;;;;;;;24.65;15.08;;;;;;;21.62;81.16;98669.77;1701874;81;21079;-64
2021/08/02 02:08:25;;;;;;;21.00;14.98;;;;;;;21.64;81.10;98668.83;1713045;82;21082;-64
2021/08/02 02:11:00;;;;;;;19.37;15.20;;;;;;;21.68;80.98;98660.00;1715849;82;21060;-64
2021/08/02 02:13:37;;;;;;;18.07;15.85;;;;;;;21.69;80.87;98661.58;1720351;83;21047;-64
2021/08/02 02:16:04;;;;;;;20.00;15.25;;;;;;;21.70;80.88;98663.19;1712448;82;21095;-64
2021/08/02 02:18:33;;;;;;;19.95;15.45;;;;;;;21.67;80.91;98656.42;1748238;81;21035;-64
2021/08/02 02:21:00;;;;;;;20.15;15.53;;;;;;;21.67;80.96;98663.93;1703426;82;21019;-64
2021/08/02 02:23:27;;;;;;;16.93;14.58;;;;;;;21.65;81.00;98657.36;1717116;83;21003;-65
2021/08/02 02:25:53;;;;;;;19.77;16.20;;;;;;;21.66;81.06;98660.94;1697159;83;21027;-64
2021/08/02 02:28:20;;;;;;;19.07;15.53;;;;;;;21.66;81.15;98662.33;1723777;83;21012;-65
2021/08/02 02:30:48;;;;;;;19.40;15.80;;;;;;;21.66;81.18;98669.25;1702272;83;21039;-64
2021/08/02 02:33:16;;;;;;;18.45;14.80;;;;;;;21.66;81.25;98670.05;1717599;82;21498;-64
2021/08/02 02:35:46;;;;;;;20.27;15.63;;;;;;;21.65;81.33;98673.98;1719550;82;20979;-64
2021/08/02 02:38:14;;;;;;;19.23;15.68;;;;;;;21.66;81.34;98684.48;1713476;83;21509;-65
2021/08/02 02:40:43;;;;;;;20.20;15.63;;;;;;;21.65;81.32;98689.22;1716887;83;21498;-64
2021/08/02 02:43:11;;;;;;;21.37;14.93;;;;;;;21.65;81.31;98687.83;1724724;83;21027;-65
2021/08/02 02:45:39;;;;;;;19.48;14.75;;;;;;;21.66;81.27;98688.63;1734387;82;20979;-64
2021/08/02 02:48:07;;;;;;;17.37;14.63;;;;;;;21.67;81.21;98686.09;1729924;82;21038;-64
2021/08/02 02:50:34;;;;;;;15.85;13.35;;;;;;;21.69;81.19;98689.27;1729866;82;21463;-64
2021/08/02 02:53:03;;;;;;;19.57;14.58;;;;;;;21.72;81.09;98690.72;1717404;83;21122;-64
2021/08/02 02:55:30;;;;;;;17.82;13.80;;;;;;;21.76;81.06;98697.70;1719119;82;20975;-64
2021/08/02 02:57:57;;;;;;;20.72;14.35;;;;;;;21.79;80.94;98710.80;1722944;81;21083;-65
2021/08/02 03:00:24;;;;;;;17.87;13.58;;;;;;;21.83;80.93;98729.67;1714178;82;21011;-65
2021/08/02 03:02:52;;;;;;;16.50;13.93;;;;;;;21.87;80.85;98729.73;1709615;83;21596;-65
2021/08/02 03:05:20;;;;;;;17.75;14.18;;;;;;;21.89;80.75;98728.22;1711649;83;21454;-65
2021/08/02 03:07:56;;;;;;;19.50;14.18;;;;;;;21.92;80.66;98744.13;1689377;85;21594;-65
2021/08/02 03:10:24;;;;;;;16.55;13.58;;;;;;;21.98;80.61;98747.38;1714725;83;21012;-65
2021/08/02 03:12:52;;;;;;;17.73;13.38;;;;;;;22.05;80.54;98735.02;1709361;82;21493;-66
2021/08/02 03:15:19;;;;;;;16.07;12.95;;;;;;;22.09;80.39;98717.28;1718718;83;21047;-65
2021/08/02 03:17:47;;;;;;;14.25;12.33;;;;;;;22.14;80.10;98692.62;1713435;83;21438;-65
2021/08/02 03:20:15;;;;;;;15.68;12.18;;;;;;;22.18;80.01;98705.33;1697155;83;20980;-65
2021/08/02 03:22:51;;;;;;;16.25;13.35;;;;;;;22.25;79.94;98706.83;1712299;81;21067;-64
2021/08/02 03:25:29;;;;;;;13.98;12.45;;;;;;;22.35;79.68;98703.21;1707235;83;21023;-65
2021/08/02 03:28:06;;;;;;;14.78;12.05;;;;;;;22.43;79.45;98693.80;1712930;81;21051;-65
2021/08/02 03:30:35;;;;;;;19.23;12.58;;;;;;;22.50;79.11;98681.42;1712354;83;21022;-66
2021/08/02 03:33:03;;;;;;;16.45;11.43;;;;;;;22.55;78.94;98679.12;1712515;83;21427;-64
2021/08/02 03:35:29;;;;;;;15.70;11.97;;;;;;;22.60;78.64;98675.23;1698818;83;21040;-64
2021/08/02 03:37:56;;;;;;;13.68;11.68;;;;;;;22.66;78.45;98673.72;1710886;83;21036;-65
2021/08/02 03:40:23;;;;;;;15.75;11.75;;;;;;;22.74;78.16;98672.67;1712395;83;21558;-65
2021/08/02 03:42:50;;;;;;;14.28;11.85;;;;;;;22.86;77.95;98667.44;1708632;83;21079;-64
2021/08/02 03:45:19;;;;;;;16.42;12.18;;;;;;;22.95;77.52;98659.63;1711631;83;21018;-64
2021/08/02 03:47:46;;;;;;;18.62;11.68;;;;;;;23.01;77.17;98657.52;1713455;82;21418;-64
2021/08/02 03:50:14;;;;;;;14.90;11.50;;;;;;;23.05;76.80;98657.56;1715951;83;21003;-65
2021/08/02 03:52:40;;;;;;;15.80;11.70;;;;;;;23.06;76.64;98647.45;1714099;83;21079;-64
2021/08/02 03:55:08;;;;;;;16.15;11.38;;;;;;;23.14;76.58;98640.80;1715712;82;21031;-64
2021/08/02 03:57:35;;;;;;;14.93;11.95;;;;;;;23.18;76.18;98641.64;1723319;82;21066;-64
2021/08/02 04:00:03;;;;;;;17.23;12.28;;;;;;;23.17;76.06;98642.00;1702083;83;21067;-65
2021/08/02 04:02:31;;;;;;;14.10;12.35;;;;;;;23.13;76.02;98637.80;1706636;82;21106;-64
2021/08/02 04:04:57;;;;;;;15.85;11.60;;;;;;;23.13;76.04;98637.03;1706804;83;21098;-64
2021/08/02 04:07:24;;;;;;;17.25;12.18;;;;;;;23.12;75.97;98638.20;1690248;83;21032;-64
2021/08/02 04:09:51;;;;;;;15.65;11.63;;;;;;;23.03;76.04;98632.95;1702777;83;21059;-65
2021/08/02 04:12:17;;;;;;;16.30;11.85;;;;;;;23.03;76.04;98632.95;1705043;83;21113;-65
2021/08/02 04:14:44;;;;;;;17.50;11.70;;;;;;;23.00;76.04;98628.16;1701026;83;21495;-65
2021/08/02 04:17:10;;;;;;;15.65;11.38;;;;;;;22.96;76.27;98625.13;1704858;82;21074;-65
2021/08/02 04:19:37;;;;;;;14.38;11.88;;;;;;;22.95;76.47;98617.42;1692250;83;21553;-65
2021/08/02 04:22:04;;;;;;;15.55;11.80;;;;;;;22.93;76.56;98612.02;1711254;82;21608;-64
2021/08/02 04:24:30;;;;;;;15.98;12.13;;;;;;;22.91;76.70;98615.78;1717849;82;20956;-65
2021/08/02 04:26:57;;;;;;;21.45;12.33;;;;;;;22.90;76.82;98609.42;1713263;83;21044;-65
2021/08/02 04:29:23;;;;;;;14.00;11.73;;;;;;;22.92;76.92;98608.45;1711087;83;21027;-65
2021/08/02 04:31:49;;;;;;;15.48;12.43;;;;;;;22.91;76.99;98598.55;1713569;82;21047;-65
2021/08/02 04:34:16;;;;;;;14.47;12.23;;;;;;;22.89;77.22;98600.89;1717014;82;21027;-66
2021/08/02 04:36:43;;;;;;;13.62;12.03;;;;;;;22.91;77.43;98584.67;1722367;81;21565;-64
2021/08/02 04:39:09;;;;;;;13.95;10.95;;;;;;;22.94;77.48;98576.97;1712670;83;21016;-64
2021/08/02 04:41:37;;;;;;;17.05;11.35;;;;;;;22.95;77.56;98575.00;1713766;83;21114;-65
2021/08/02 04:44:05;;;;;;;15.08;11.73;;;;;;;22.93;77.60;98561.48;1711933;83;21482;-65
2021/08/02 04:46:31;;;;;;;12.90;11.60;;;;;;;22.91;77.65;98566.63;1701414;83;21555;-66
2021/08/02 04:48:58;;;;;;;16.85;12.70;;;;;;;22.90;77.63;98581.68;1714306;83;21042;-65
2021/08/02 04:51:25;;;;;;;13.93;12.30;;;;;;;22.89;77.71;98591.17;1715812;82;21075;-65
2021/08/02 04:53:51;;;;;;;16.85;12.58;;;;;;;22.89;77.59;98609.20;1707562;83;21067;-66
2021/08/02 04:56:19;;;;;;;12.85;11.35;;;;;;;22.90;77.61;98620.53;1709392;83;21099;-65
2021/08/02 04:58:45;;;;;;;15.03;11.40;;;;;;;22.96;77.45;98607.89;1719223;83;21514;-66
2021/08/02 05:01:11;;;;;;;14.65;11.40;;;;;;;23.00;77.26;98602.38;1716624;82;21083;-65
2021/08/02 05:03:39;;;;;;;12.37;11.08;;;;;;;23.03;77.18;98578.02;1711243;83;21087;-65
2021/08/02 05:06:05;;;;;;;17.02;11.45;;;;;;;23.03;77.04;98559.40;1703286;83;21056;-65
2021/08/02 05:08:32;;;;;;;15.15;11.05;;;;;;;23.03;76.85;98551.07;1698750;83;21586;-65
2021/08/02 05:11:00;;;;;;;14.47;10.32;;;;;;;23.04;76.71;98553.27;1700572;82;21059;-64
2021/08/02 05:13:26;;;;;;;15.53;10.75;;;;;;;23.04;76.60;98541.58;1702464;82;21059;-63
2021/08/02 05:15:53;;;;;;;15.25;10.65;;;;;;;23.06;76.45;98506.52;1697080;83;21110;-64
2021/08/02 05:18:19;;;;;;;13.03;10.25;;;;;;;23.05;76.30;98536.23;1708022;83;21016;-64
2021/08/02 05:20:45;;;;;;;16.37;11.15;;;;;;;23.03;76.27;98548.30;1709133;81;21034;-64
2021/08/02 05:23:12;;;;;;;12.75;10.48;;;;;;;23.01;76.35;98547.89;1737839;82;21170;-65
2021/08/02 05:25:38;;;;;;;13.35;10.80;;;;;;;23.01;76.38;98546.51;1712258;82;21039;-66
2021/08/02 05:28:05;;;;;;;13.08;10.93;;;;;;;23.01;76.40;98547.89;1695004;85;21051;-65
2021/08/02 05:30:31;;;;;;;15.23;11.65;;;;;;;23.05;76.41;98545.16;1717787;82;21869;-65
2021/08/02 05:32:58;;;;;;;15.78;11.43;;;;;;;23.08;76.37;98543.00;1716336;82;21090;-65
2021/08/02 05:35:24;;;;;;;19.62;12.15;;;;;;;23.13;76.30;98542.66;1705581;83;20979;-65
2021/08/02 05:37:53;;;;;;;19.12;11.80;;;;;;;23.19;76.26;98539.14;1715158;82;21051;-65
2021/08/02 05:40:20;;;;;;;18.52;12.20;;;;;;;23.26;76.11;98541.97;1702396;83;21003;-63
2021/08/02 05:42:47;;;;;;;16.17;11.75;;;;;;;23.35;75.91;98545.80;1694921;85;21563;-63
2021/08/02 05:45:13;;;;;;;15.60;12.20;;;;;;;23.44;75.75;98548.28;1695183;85;20995;-64
2021/08/02 05:47:41;;;;;;;14.65;12.00;;;;;;;23.53;75.62;98565.40;1694906;85;21039;-63
2021/08/02 05:50:09;;;;;;;13.68;11.63;;;;;;;23.64;75.57;98556.55;1699205;82;21530;-64
2021/08/02 05:52:36;;;;;;;14.23;11.90;;;;;;;23.78;75.22;98554.67;1707336;83;21090;-64
2021/08/02 05:55:04;;;;;;;20.85;12.73;;;;;;;23.96;75.06;98563.11;1725388;83;21047;-64
2021/08/02 05:57:30;;;;;;;16.95;12.53;;;;;;;24.13;74.51;98570.77;1707306;83;21110;-63
2021/08/02 05:59:58;;;;;;;18.37;12.88;;;;;;;24.24;74.21;98575.00;1704936;83;21356;-63
2021/08/02 06:02:25;;;;;;;15.13;12.00;;;;;;;24.33;73.76;98563.53;1694869;85;21063;-64
2021/08/02 06:04:51;;;;;;;18.48;12.98;;;;;;;24.47;73.41;98566.37;1694962;85;21105;-64
2021/08/02 06:07:19;;;;;;;18.05;12.40;;;;;;;24.66;73.23;98552.10;1693525;85;21533;-63
2021/08/02 06:09:47;;;;;;;14.43;11.63;;;;;;;24.91;72.87;98557.75;1699396;83;20976;-63
2021/08/02 06:12:13;;;;;;;17.42;12.85;;;;;;;25.32;71.21;98563.77;1703895;83;21035;-63
2021/08/02 06:14:40;;;;;;;16.35;12.68;;;;;;;25.32;71.21;98563.77;1717964;82;21840;-64
2021/08/02 06:17:06;;;;;;;17.05;12.07;;;;;;;25.52;70.37;98562.20;1718001;82;21425;-64
2021/08/02 06:19:32;;;;;;;14.50;11.78;;;;;;;25.66;69.59;98560.80;1708015;83;20976;-63
2021/08/02 06:21:58;;;;;;;15.45;12.80;;;;;;;25.77;69.38;98565.76;1700851;83;21043;-64
2021/08/02 06:24:25;;;;;;;15.28;12.23;;;;;;;25.83;68.76;98564.73;1711141;83;21034;-63
2021/08/02 06:26:51;;;;;;;14.83;12.20;;;;;;;25.86;68.24;98558.39;1717605;83;21111;-61
2021/08/02 06:29:18;;;;;;;13.05;11.75;;;;;;;25.95;67.74;98562.34;1719900;83;21034;-61
2021/08/02 06:31:44;;;;;;;13.90;12.10;;;;;;;26.17;67.40;98568.09;1732431;81;21484;-62
2021/08/02 06:34:11;;;;;;;13.03;11.33;;;;;;;26.38;66.95;98564.42;1732432;83;21647;-63
2021/08/02 06:36:39;;;;;;;14.13;11.38;;;;;;;26.63;65.70;98553.95;1731062;81;21071;-64
2021/08/02 06:39:05;;;;;;;14.25;10.40;;;;;;;26.83;64.76;98555.64;1715467;83;21517;-64
2021/08/02 06:41:32;;;;;;;13.48;10.78;;;;;;;26.99;63.67;98554.56;1715669;83;21031;-64
2021/08/02 06:43:58;;;;;;;23.25;11.22;;;;;;;27.19;63.46;98543.63;1720041;82;21510;-65
2021/08/02 06:46:25;;;;;;;12.18;10.53;;;;;;;27.38;62.46;98544.48;1689887;82;21133;-64
2021/08/02 06:48:51;;;;;;;11.57;10.35;;;;;;;27.50;61.62;98543.98;1710363;83;21053;-65
2021/08/02 06:51:19;;;;;;;11.30;10.10;;;;;;;27.55;61.28;98542.76;1698979;83;21079;-64
2021/08/02 06:53:46;;;;;;;11.70;10.20;;;;;;;27.56;60.90;98544.36;1687371;85;21051;-63
2021/08/02 06:56:12;;;;;;;12.63;10.30;;;;;;;27.58;60.77;98541.92;1726910;81;21083;-63
2021/08/02 06:58:39;;;;;;;11.40;10.03;;;;;;;27.68;60.93;98541.83;1717517;83;21063;-63
2021/08/02 07:01:05;;;;;;;12.88;10.08;;;;;;;27.87;60.11;98549.44;1715677;83;21043;-64
2021/08/02 07:03:31;;;;;;;14.60;10.28;;;;;;;28.04;60.07;98555.44;1713050;82;21913;-62
2021/08/02 07:05:58;;;;;;;13.38;10.45;;;;;;;28.21;59.58;98551.67;1702136;83;21095;-62
2021/08/02 07:08:24;;;;;;;13.38;10.68;;;;;;;28.36;59.33;98560.09;1723111;82;21602;-62
2021/08/02 07:10:50;;;;;;;12.88;11.33;;;;;;;28.44;58.30;98558.80;1728273;83;21038;-63
2021/08/02 07:13:17;;;;;;;14.60;11.97;;;;;;;28.43;58.71;98558.60;1726992;82;21034;-63
2021/08/02 07:15:45;;;;;;;13.28;11.30;;;;;;;28.45;58.59;98554.00;1712165;81;21565;-64
2021/08/02 07:18:11;;;;;;;16.25;11.65;;;;;;;28.51;58.15;98575.50;1736662;82;21090;-64
2021/08/02 07:22:56;;;;;;;;;;;;;;;28.76;57.19;98568.20;1785424;79;22817;-64
2021/08/02 07:25:23;;;;;;;15.28;10.93;;;;;;;28.77;57.55;98566.20;1731150;82;20521;-64
2021/08/02 07:27:50;;;;;;;14.05;10.95;;;;;;;28.88;58.37;98572.42;1736711;82;21105;-65
2021/08/02 07:30:16;;;;;;;14.30;10.40;;;;;;;29.07;56.74;98553.55;1756299;82;21515;-65
2021/08/02 07:32:42;;;;;;;15.35;10.13;;;;;;;29.27;56.41;98567.66;1756325;82;21086;-65
2021/08/02 07:35:10;;;;;;;13.20;9.75;;;;;;;29.49;55.82;98561.30;1756261;82;21133;-64
2021/08/02 07:37:41;;;;;;;11.97;9.18;;;;;;;29.71;55.26;98565.92;1707803;83;21643;-61
2021/08/02 07:40:09;;;;;;;11.93;9.70;;;;;;;29.91;54.32;98566.78;1730382;81;21000;-62
2021/08/02 07:42:35;;;;;;;15.18;9.68;;;;;;;30.12;54.09;98571.20;1729245;82;21059;-63
2021/08/02 07:45:03;;;;;;;9.23;7.15;;;;;;;30.32;53.59;98574.03;1737953;81;21541;-62
2021/08/02 07:47:30;;;;;;;14.35;8.10;;;;;;;30.45;50.69;98570.78;1736172;81;21070;-62
2021/08/02 07:49:59;;;;;;;10.88;7.75;;;;;;;30.55;50.62;98576.17;1763887;81;21565;-62
2021/08/02 07:52:25;;;;;;;9.20;7.17;;;;;;;30.67;50.34;98583.16;1763873;81;21031;-63
2021/08/02 07:54:52;;;;;;;11.10;6.97;;;;;;;30.74;49.47;98576.59;1757583;80;21030;-64
2021/08/02 07:57:18;;;;;;;9.15;6.60;;;;;;;30.75;48.39;98585.20;1758763;81;21091;-63
2021/08/02 07:59:45;;;;;;;9.13;6.47;;;;;;;30.78;47.03;98582.31;1757817;81;21038;-63
2021/08/02 08:02:11;;;;;;;8.15;6.30;;;;;;;30.83;47.09;98590.22;1761613;81;21679;-62
2021/08/02 08:04:37;;;;;;;10.55;5.83;;;;;;;30.93;47.67;98589.79;1729711;83;21070;-64
2021/08/02 08:07:04;;;;;;;11.25;5.50;;;;;;;31.01;46.51;98584.23;1698478;84;21691;-64
2021/08/02 08:09:30;;;;;;;7.90;5.60;;;;;;;31.07;45.67;98590.30;1683897;83;21018;-63
2021/08/02 08:11:56;;;;;;;8.85;5.40;;;;;;;31.09;45.75;98584.25;1710308;82;21048;-65
2021/08/02 08:14:23;;;;;;;7.45;5.15;;;;;;;31.06;44.35;98590.14;1731530;82;20996;-65
2021/08/02 08:16:51;;;;;;;9.63;5.28;;;;;;;31.00;44.54;98584.84;1730522;83;21088;-64
2021/08/02 08:19:18;;;;;;;7.28;5.22;;;;;;;30.90;45.06;98587.25;1729217;82;20941;-65
2021/08/02 08:21:45;;;;;;;7.85;5.78;;;;;;;30.98;45.56;98587.91;1735480;82;21040;-62
2021/08/02 08:24:11;;;;;;;9.83;5.47;;;;;;;31.17;44.70;98594.72;1725139;83;21013;-63
2021/08/02 08:26:38;;;;;;;9.43;5.17;;;;;;;31.17;43.94;98584.27;1725858;83;21599;-64
2021/08/02 08:29:05;;;;;;;8.20;5.00;;;;;;;31.17;44.10;98589.09;1693205;85;21060;-64
2021/08/02 08:31:33;;;;;;;9.90;5.58;;;;;;;31.26;45.23;98591.47;1726271;83;21163;-64
2021/08/02 08:33:59;;;;;;;10.00;5.33;;;;;;;31.41;44.90;98589.11;1755643;81;21506;-65
2021/08/02 08:36:28;;;;;;;7.87;5.20;;;;;;;31.50;44.43;98590.69;1753557;81;21011;-63
2021/08/02 08:38:55;;;;;;;7.20;5.20;;;;;;;31.56;44.67;98601.64;1755040;81;21437;-64
2021/08/02 08:41:21;;;;;;;8.55;4.80;;;;;;;31.63;43.32;98601.45;1754913;81;21564;-63
2021/08/02 08:43:53;;;;;;;9.58;4.70;;;;;;;31.58;42.50;98608.39;1756737;81;21056;-66
2021/08/02 08:46:20;;;;;;;7.78;5.25;;;;;;;31.48;42.04;98604.41;1754144;81;21121;-66
2021/08/02 08:48:48;;;;;;;11.78;4.95;;;;;;;31.41;42.31;98594.73;1755402;81;21416;-66
2021/08/02 08:51:14;;;;;;;8.38;4.53;;;;;;;31.41;42.59;98605.38;1754783;82;21683;-67
2021/08/02 08:53:44;;;;;;;7.60;4.62;;;;;;;31.54;43.95;98616.13;1719152;83;21066;-67
2021/08/02 08:56:16;;;;;;;9.38;5.00;;;;;;;31.60;42.88;98608.58;1734245;83;21535;-66
2021/08/02 08:58:44;;;;;;;7.35;4.65;;;;;;;31.57;43.16;98606.80;1734706;83;20977;-67
2021/08/02 09:01:10;;;;;;;7.00;4.45;;;;;;;31.63;43.52;98606.29;1725475;83;21072;-66
2021/08/02 09:03:36;;;;;;;11.80;4.87;;;;;;;31.71;43.30;98597.86;1696991;84;21080;-65
2021/08/02 09:06:07;;;;;;;9.33;4.20;;;;;;;31.66;43.43;98604.00;1722645;83;21524;-66
2021/08/02 09:08:41;;;;;;;8.75;4.30;;;;;;;31.62;43.70;98599.07;1712181;83;21056;-66
2021/08/02 09:11:07;;;;;;;6.12;4.10;;;;;;;31.54;43.35;98595.64;1734681;83;21549;-66
2021/08/02 09:13:36;;;;;;;5.65;3.60;;;;;;;31.49;43.88;98602.58;1734355;83;21024;-66
2021/08/02 09:16:22;;;;;;;6.80;3.30;;;;;;;31.54;42.77;98611.11;1734284;83;21067;-66
2021/08/02 09:19:02;;;;;;;6.70;4.00;;;;;;;31.36;42.56;98614.32;1711478;83;21039;-65
2021/08/02 09:21:53;;;;;;;7.40;3.50;;;;;;;31.24;42.98;98619.24;1736472;82;21084;-66
2021/08/02 09:24:30;;;;;;;6.95;3.50;;;;;;;31.23;43.04;98612.64;1736379;82;21000;-64
2021/08/02 09:26:57;;;;;;;7.50;3.65;;;;;;;31.15;43.38;98623.25;1692679;84;21095;-65
2021/08/02 09:29:32;;;;;;;8.45;3.83;;;;;;;31.05;42.52;98618.05;1717806;83;21054;-65
2021/08/02 09:32:00;;;;;;;8.20;3.65;;;;;;;30.80;43.76;98631.82;1718131;83;21035;-66
2021/08/02 09:34:26;;;;;;;6.80;3.80;;;;;;;30.66;44.66;98635.53;1718241;83;21019;-66
2021/08/02 09:36:59;;;;;;;6.03;3.45;;;;;;;30.63;44.52;98643.42;1717924;83;21130;-65
2021/08/02 09:39:30;;;;;;;7.15;3.87;;;;;;;30.55;44.63;98638.56;1748177;82;21063;-65
2021/08/02 09:42:06;;;;;;;12.53;4.25;;;;;;;30.48;45.19;98640.11;1749205;82;21039;-65
2021/08/02 09:44:32;;;;;;;;;;;;;;;30.48;45.76;98645.72;1755003;82;20976;-66
2021/08/02 09:47:01;;;;;;;5.58;3.52;;;;;;;30.54;45.96;98645.39;1753193;82;20130;-67
2021/08/02 09:49:34;;;;;;;9.08;3.90;;;;;;;30.61;46.00;98655.08;1741806;82;20960;-64
2021/08/02 09:52:06;;;;;;;8.25;3.33;;;;;;;30.75;44.93;98643.55;1740707;82;21079;-64
2021/08/02 09:54:32;;;;;;;10.58;3.70;;;;;;;30.73;44.58;98655.84;1747640;82;21011;-65
2021/08/02 09:56:59;;;;;;;6.33;3.47;;;;;;;30.66;45.42;98653.80;1741172;82;21547;-65
2021/08/02 09:59:26;;;;;;;12.35;3.55;;;;;;;30.67;44.66;98655.38;1647859;83;21086;-67
2021/08/02 10:01:54;;;;;;;7.53;3.20;;;;;;;30.72;44.95;98656.27;1718004;83;21071;-65
2021/08/02 10:04:21;;;;;;;5.97;2.92;;;;;;;30.81;44.35;98651.67;1717920;83;21099;-65
2021/08/02 10:06:47;;;;;;;5.70;2.92;;;;;;;30.89;44.76;98662.92;1717970;83;21078;-65
2021/08/02 10:09:15;;;;;;;6.42;3.90;;;;;;;31.02;44.50;98667.31;1736104;82;21024;-65
2021/08/02 10:11:41;;;;;;;9.85;3.27;;;;;;;31.21;44.91;98656.67;1737034;82;21087;-65
2021/08/02 10:14:10;;;;;;;8.03;3.45;;;;;;;31.34;43.86;98665.20;1691866;84;21579;-67
2021/08/02 10:16:38;;;;;;;6.75;2.77;;;;;;;31.33;42.43;98668.63;1737108;82;21043;-65
2021/08/02 10:19:10;;;;;;;10.50;2.90;;;;;;;31.33;42.77;98669.23;1692954;82;21480;-66
2021/08/02 10:21:46;;;;;;;6.97;3.17;;;;;;;31.29;43.10;98677.75;1736654;82;21087;-66
2021/08/02 10:24:16;;;;;;;8.28;3.50;;;;;;;31.26;42.83;98677.22;1737012;82;21020;-66
2021/08/02 10:26:56;;;;;;;7.00;3.08;;;;;;;31.15;42.53;98674.45;1693108;84;21118;-65
2021/08/02 10:29:23;;;;;;;8.83;3.52;;;;;;;30.92;42.24;98680.95;1739542;82;20998;-66
2021/08/02 10:31:51;;;;;;;6.30;2.90;;;;;;;30.76;43.33;98678.06;1752801;82;21078;-65
2021/08/02 10:34:21;;;;;;;5.97;3.00;;;;;;;30.71;44.77;98673.77;1753104;82;20983;-66
2021/08/02 10:37:02;;;;;;;7.67;3.20;;;;;;;30.74;44.46;98688.95;1722529;82;21058;-67
2021/08/02 10:39:31;;;;;;;7.42;3.10;;;;;;;30.71;44.90;98676.56;1718202;83;21486;-65
2021/08/02 10:42:12;;;;;;;8.35;2.92;;;;;;;30.70;45.13;98677.78;1718087;83;21522;-65
2021/08/02 10:44:39;;;;;;;8.00;3.05;;;;;;;30.84;45.70;98671.08;1718199;83;20987;-65
2021/08/02 10:47:10;;;;;;;7.50;3.33;;;;;;;31.03;44.88;98675.94;1745060;82;21070;-66
2021/08/02 10:49:49;;;;;;;5.92;2.52;;;;;;;31.07;43.89;98672.44;1742923;82;21047;-66
2021/08/02 10:52:27;;;;;;;7.17;2.90;;;;;;;31.09;44.23;98671.38;1748767;82;21060;-65
2021/08/02 10:54:53;;;;;;;6.15;2.98;;;;;;;31.18;44.84;98677.19;1753012;82;21034;-67
2021/08/02 10:57:23;;;;;;;9.88;3.20;;;;;;;31.35;44.41;98678.04;1742525;82;21550;-66
2021/08/02 10:59:50;;;;;;;9.78;3.17;;;;;;;31.41;43.55;98685.52;1716875;82;20996;-66
2021/08/02 11:02:18;;;;;;;9.35;3.30;;;;;;;31.31;43.15;98683.74;1737116;82;21028;-64
2021/08/02 11:04:54;;;;;;;7.17;3.37;;;;;;;31.09;43.65;98683.42;1736669;82;21084;-64
2021/08/02 11:07:21;;;;;;;6.37;3.15;;;;;;;30.94;44.89;98676.48;1736852;82;21146;-65
2021/08/02 11:09:48;;;;;;;7.35;3.25;;;;;;;30.90;45.13;98684.19;1692042;85;21091;-66
2021/08/02 11:12:15;;;;;;;9.43;3.02;;;;;;;30.98;44.71;98683.45;1736577;82;21105;-65
2021/08/02 11:14:53;;;;;;;5.05;2.83;;;;;;;31.06;44.92;98668.83;1692111;85;21031;-66
2021/08/02 11:17:24;;;;;;;7.22;3.00;;;;;;;31.10;44.00;98670.16;1746491;82;21145;-66
2021/08/02 11:20:08;;;;;;;7.55;3.50;;;;;;;31.18;43.58;98660.96;1738258;82;20992;-67
2021/08/02 11:22:52;;;;;;;6.35;3.27;;;;;;;31.23;44.00;98668.86;1742740;82;21067;-65
2021/08/02 11:25:27;;;;;;;6.47;2.92;;;;;;;31.26;44.18;98661.75;1719628;83;21440;-64
2021/08/02 11:27:56;;;;;;;5.20;2.95;;;;;;;31.30;44.57;98664.48;1755480;82;21609;-65
2021/08/02 11:30:23;;;;;;;9.38;3.20;;;;;;;31.32;43.81;98665.63;1755317;82;21497;-65
2021/08/02 11:32:50;;;;;;;6.10;3.15;;;;;;;31.33;43.63;98664.41;1755625;82;21560;-66
2021/08/02 11:35:16;;;;;;;8.35;2.72;;;;;;;31.29;44.47;98667.91;1755129;82;21010;-67